sensor_id;sensor_type;location;lat;lon;timestamp;P1;durP1;ratioP1;P2;durP2;ratioP2
75289;SDS011;63883;48.996;20.804;2023-05-17T00:02:11;12.85;;;8.48;;
75289;SDS011;63883;48.996;20.804;2023-05-17T00:04:37;12.75;;;8.48;;
75289;SDS011;63883;48.996;20.804;2023-05-17T00:07:02;12.10;;;8.20;;
75289;SDS011;63883;48.996;20.804;2023-05-17T00:09:29;12.77;;;8.15;;
75289;SDS011;63883;48.996;20.804;2023-05-17T00:11:54;12.50;;;7.68;;
75289;SDS011;63883;48.996;20.804;2023-05-17T00:14:20;11.50;;;7.95;;
75289;SDS011;63883;48.996;20.804;2023-05-17T00:16:46;12.48;;;8.35;;
75289;SDS011;63883;48.996;20.804;2023-05-17T00:19:12;12.95;;;8.45;;
75289;SDS011;63883;48.996;20.804;2023-05-17T00:21:37;13.73;;;8.60;;
75289;SDS011;63883;48.996;20.804;2023-05-17T00:24:03;11.48;;;7.85;;
75289;SDS011;63883;48.996;20.804;2023-05-17T00:26:29;12.30;;;8.32;;
75289;SDS011;63883;48.996;20.804;2023-05-17T00:28:55;12.90;;;8.35;;
75289;SDS011;63883;48.996;20.804;2023-05-17T00:31:20;10.75;;;7.57;;
75289;SDS011;63883;48.996;20.804;2023-05-17T00:33:46;10.07;;;7.45;;
75289;SDS011;63883;48.996;20.804;2023-05-17T00:36:12;9.75;;;7.13;;
75289;SDS011;63883;48.996;20.804;2023-05-17T00:38:37;10.02;;;6.90;;
75289;SDS011;63883;48.996;20.804;2023-05-17T00:41:03;11.13;;;7.00;;
75289;SDS011;63883;48.996;20.804;2023-05-17T00:43:29;7.68;;;6.35;;
75289;SDS011;63883;48.996;20.804;2023-05-17T00:45:55;7.90;;;5.80;;
75289;SDS011;63883;48.996;20.804;2023-05-17T00:48:21;7.65;;;5.68;;
75289;SDS011;63883;48.996;20.804;2023-05-17T00:50:50;8.13;;;5.68;;
75289;SDS011;63883;48.996;20.804;2023-05-17T00:53:16;7.53;;;4.75;;
75289;SDS011;63883;48.996;20.804;2023-05-17T00:55:43;5.95;;;4.15;;
75289;SDS011;63883;48.996;20.804;2023-05-17T00:58:10;6.28;;;4.90;;
75289;SDS011;63883;48.996;20.804;2023-05-17T01:00:37;6.78;;;4.90;;
75289;SDS011;63883;48.996;20.804;2023-05-17T01:03:03;6.60;;;4.55;;
75289;SDS011;63883;48.996;20.804;2023-05-17T01:05:29;6.30;;;4.82;;
75289;SDS011;63883;48.996;20.804;2023-05-17T01:07:55;7.25;;;5.32;;
75289;SDS011;63883;48.996;20.804;2023-05-17T01:10:33;8.77;;;6.10;;
75289;SDS011;63883;48.996;20.804;2023-05-17T01:13:09;7.72;;;5.70;;
75289;SDS011;63883;48.996;20.804;2023-05-17T01:15:40;7.50;;;5.35;;
75289;SDS011;63883;48.996;20.804;2023-05-17T01:20:52;7.50;;;5.63;;
75289;SDS011;63883;48.996;20.804;2023-05-17T01:26:13;8.73;;;6.15;;
75289;SDS011;63883;48.996;20.804;2023-05-17T01:28:43;8.10;;;5.97;;
75289;SDS011;63883;48.996;20.804;2023-05-17T01:31:10;8.35;;;6.30;;
75289;SDS011;63883;48.996;20.804;2023-05-17T01:33:37;8.07;;;6.03;;
75289;SDS011;63883;48.996;20.804;2023-05-17T01:36:03;8.43;;;6.22;;
75289;SDS011;63883;48.996;20.804;2023-05-17T01:38:30;8.48;;;6.25;;
75289;SDS011;63883;48.996;20.804;2023-05-17T01:43:47;9.10;;;6.10;;
75289;SDS011;63883;48.996;20.804;2023-05-17T01:54:10;6.13;;;4.63;;
75289;SDS011;63883;48.996;20.804;2023-05-17T01:56:40;7.47;;;4.97;;
75289;SDS011;63883;48.996;20.804;2023-05-17T01:59:08;6.38;;;4.88;;
75289;SDS011;63883;48.996;20.804;2023-05-17T02:01:36;7.57;;;5.82;;
75289;SDS011;63883;48.996;20.804;2023-05-17T02:04:05;8.48;;;6.35;;
75289;SDS011;63883;48.996;20.804;2023-05-17T02:06:30;11.45;;;6.40;;
75289;SDS011;63883;48.996;20.804;2023-05-17T02:08:56;8.65;;;6.20;;
75289;SDS011;63883;48.996;20.804;2023-05-17T02:11:24;8.63;;;6.40;;
75289;SDS011;63883;48.996;20.804;2023-05-17T02:13:50;8.63;;;5.72;;
75289;SDS011;63883;48.996;20.804;2023-05-17T02:16:16;8.05;;;5.53;;
75289;SDS011;63883;48.996;20.804;2023-05-17T02:18:42;7.03;;;4.80;;
75289;SDS011;63883;48.996;20.804;2023-05-17T02:21:07;7.28;;;5.03;;
75289;SDS011;63883;48.996;20.804;2023-05-17T02:23:33;7.10;;;4.57;;
75289;SDS011;63883;48.996;20.804;2023-05-17T02:25:59;7.28;;;5.20;;
75289;SDS011;63883;48.996;20.804;2023-05-17T02:28:25;7.05;;;5.03;;
75289;SDS011;63883;48.996;20.804;2023-05-17T02:30:51;6.65;;;4.72;;
75289;SDS011;63883;48.996;20.804;2023-05-17T02:33:17;6.40;;;4.57;;
75289;SDS011;63883;48.996;20.804;2023-05-17T02:35:43;7.03;;;4.72;;
75289;SDS011;63883;48.996;20.804;2023-05-17T02:38:09;5.97;;;4.43;;
75289;SDS011;63883;48.996;20.804;2023-05-17T02:40:34;6.32;;;4.65;;
75289;SDS011;63883;48.996;20.804;2023-05-17T02:43:00;7.50;;;5.22;;
75289;SDS011;63883;48.996;20.804;2023-05-17T02:45:26;7.40;;;5.68;;
75289;SDS011;63883;48.996;20.804;2023-05-17T02:47:51;8.60;;;5.72;;
75289;SDS011;63883;48.996;20.804;2023-05-17T02:50:17;8.07;;;5.68;;
75289;SDS011;63883;48.996;20.804;2023-05-17T02:52:43;8.50;;;6.07;;
75289;SDS011;63883;48.996;20.804;2023-05-17T02:55:08;8.43;;;6.30;;
75289;SDS011;63883;48.996;20.804;2023-05-17T02:57:34;8.55;;;6.22;;
75289;SDS011;63883;48.996;20.804;2023-05-17T03:00:00;7.50;;;5.80;;
75289;SDS011;63883;48.996;20.804;2023-05-17T03:02:26;9.55;;;5.95;;
75289;SDS011;63883;48.996;20.804;2023-05-17T03:04:51;9.82;;;6.45;;
75289;SDS011;63883;48.996;20.804;2023-05-17T03:07:17;29.10;;;17.70;;
75289;SDS011;63883;48.996;20.804;2023-05-17T03:09:43;14.45;;;9.10;;
75289;SDS011;63883;48.996;20.804;2023-05-17T03:12:08;15.02;;;10.88;;
75289;SDS011;63883;48.996;20.804;2023-05-17T03:14:34;8.73;;;6.03;;
75289;SDS011;63883;48.996;20.804;2023-05-17T03:17:00;7.18;;;5.03;;
75289;SDS011;63883;48.996;20.804;2023-05-17T03:19:26;7.18;;;5.35;;
75289;SDS011;63883;48.996;20.804;2023-05-17T03:21:51;7.65;;;5.40;;
75289;SDS011;63883;48.996;20.804;2023-05-17T03:24:17;6.90;;;5.32;;
75289;SDS011;63883;48.996;20.804;2023-05-17T03:26:43;7.30;;;4.90;;
75289;SDS011;63883;48.996;20.804;2023-05-17T03:29:09;7.28;;;5.25;;
75289;SDS011;63883;48.996;20.804;2023-05-17T03:31:34;6.60;;;4.93;;
75289;SDS011;63883;48.996;20.804;2023-05-17T03:34:00;7.05;;;5.43;;
75289;SDS011;63883;48.996;20.804;2023-05-17T03:36:26;7.07;;;5.05;;
75289;SDS011;63883;48.996;20.804;2023-05-17T03:38:51;8.45;;;4.97;;
75289;SDS011;63883;48.996;20.804;2023-05-17T03:41:17;7.20;;;5.20;;
75289;SDS011;63883;48.996;20.804;2023-05-17T03:43:43;6.60;;;5.05;;
75289;SDS011;63883;48.996;20.804;2023-05-17T03:46:08;7.40;;;5.53;;
75289;SDS011;63883;48.996;20.804;2023-05-17T03:48:34;8.80;;;6.82;;
75289;SDS011;63883;48.996;20.804;2023-05-17T03:51:00;9.43;;;7.22;;
75289;SDS011;63883;48.996;20.804;2023-05-17T03:53:26;9.60;;;7.53;;
75289;SDS011;63883;48.996;20.804;2023-05-17T03:55:51;8.40;;;6.65;;
75289;SDS011;63883;48.996;20.804;2023-05-17T03:58:17;10.93;;;6.65;;
75289;SDS011;63883;48.996;20.804;2023-05-17T04:00:43;8.88;;;5.72;;
75289;SDS011;63883;48.996;20.804;2023-05-17T04:03:08;7.53;;;5.75;;
75289;SDS011;63883;48.996;20.804;2023-05-17T04:05:34;7.00;;;5.38;;
75289;SDS011;63883;48.996;20.804;2023-05-17T04:08:00;7.43;;;5.50;;
75289;SDS011;63883;48.996;20.804;2023-05-17T04:10:26;8.32;;;6.13;;
75289;SDS011;63883;48.996;20.804;2023-05-17T04:12:51;7.60;;;5.63;;
75289;SDS011;63883;48.996;20.804;2023-05-17T04:15:17;7.32;;;5.13;;
75289;SDS011;63883;48.996;20.804;2023-05-17T04:17:43;7.05;;;5.18;;
75289;SDS011;63883;48.996;20.804;2023-05-17T04:20:08;6.88;;;5.32;;
75289;SDS011;63883;48.996;20.804;2023-05-17T04:22:35;6.38;;;4.97;;
75289;SDS011;63883;48.996;20.804;2023-05-17T04:25:01;7.28;;;5.55;;
75289;SDS011;63883;48.996;20.804;2023-05-17T04:27:27;10.73;;;6.18;;
75289;SDS011;63883;48.996;20.804;2023-05-17T04:29:52;8.15;;;5.90;;
75289;SDS011;63883;48.996;20.804;2023-05-17T04:32:18;7.70;;;5.97;;
75289;SDS011;63883;48.996;20.804;2023-05-17T04:34:44;8.27;;;6.00;;
75289;SDS011;63883;48.996;20.804;2023-05-17T04:37:09;7.95;;;6.32;;
75289;SDS011;63883;48.996;20.804;2023-05-17T04:39:35;6.85;;;5.63;;
75289;SDS011;63883;48.996;20.804;2023-05-17T04:42:01;8.75;;;5.43;;
75289;SDS011;63883;48.996;20.804;2023-05-17T04:44:27;8.32;;;5.65;;
75289;SDS011;63883;48.996;20.804;2023-05-17T04:46:53;7.15;;;5.40;;
75289;SDS011;63883;48.996;20.804;2023-05-17T04:49:19;8.10;;;5.65;;
75289;SDS011;63883;48.996;20.804;2023-05-17T04:51:44;7.53;;;5.70;;
75289;SDS011;63883;48.996;20.804;2023-05-17T04:54:10;10.07;;;6.60;;
75289;SDS011;63883;48.996;20.804;2023-05-17T04:56:36;8.80;;;6.43;;
75289;SDS011;63883;48.996;20.804;2023-05-17T04:59:02;8.55;;;6.50;;
75289;SDS011;63883;48.996;20.804;2023-05-17T05:01:28;8.02;;;6.07;;
75289;SDS011;63883;48.996;20.804;2023-05-17T05:03:55;9.15;;;6.70;;
75289;SDS011;63883;48.996;20.804;2023-05-17T05:06:22;9.38;;;6.88;;
75289;SDS011;63883;48.996;20.804;2023-05-17T05:08:48;8.93;;;5.38;;
75289;SDS011;63883;48.996;20.804;2023-05-17T05:11:13;7.05;;;5.50;;
75289;SDS011;63883;48.996;20.804;2023-05-17T05:13:39;7.28;;;5.47;;
75289;SDS011;63883;48.996;20.804;2023-05-17T05:16:06;8.48;;;6.05;;
75289;SDS011;63883;48.996;20.804;2023-05-17T05:18:32;7.82;;;6.32;;
75289;SDS011;63883;48.996;20.804;2023-05-17T05:20:58;8.80;;;6.53;;
75289;SDS011;63883;48.996;20.804;2023-05-17T05:23:25;7.97;;;5.75;;
75289;SDS011;63883;48.996;20.804;2023-05-17T05:25:51;8.60;;;6.13;;
75289;SDS011;63883;48.996;20.804;2023-05-17T05:28:16;7.68;;;5.78;;
75289;SDS011;63883;48.996;20.804;2023-05-17T05:30:42;8.68;;;6.35;;
75289;SDS011;63883;48.996;20.804;2023-05-17T05:33:07;8.15;;;6.18;;
75289;SDS011;63883;48.996;20.804;2023-05-17T05:35:33;7.63;;;5.32;;
75289;SDS011;63883;48.996;20.804;2023-05-17T05:37:59;5.97;;;4.70;;
75289;SDS011;63883;48.996;20.804;2023-05-17T05:40:25;6.68;;;5.03;;
75289;SDS011;63883;48.996;20.804;2023-05-17T05:42:51;6.13;;;4.97;;
75289;SDS011;63883;48.996;20.804;2023-05-17T05:45:17;5.95;;;4.82;;
75289;SDS011;63883;48.996;20.804;2023-05-17T05:47:43;6.05;;;4.90;;
75289;SDS011;63883;48.996;20.804;2023-05-17T05:50:09;4.93;;;4.40;;
75289;SDS011;63883;48.996;20.804;2023-05-17T05:52:35;5.03;;;4.35;;
75289;SDS011;63883;48.996;20.804;2023-05-17T05:55:01;5.55;;;4.03;;
75289;SDS011;63883;48.996;20.804;2023-05-17T05:57:27;5.18;;;4.00;;
75289;SDS011;63883;48.996;20.804;2023-05-17T05:59:53;5.30;;;4.22;;
75289;SDS011;63883;48.996;20.804;2023-05-17T06:02:19;4.93;;;3.63;;
75289;SDS011;63883;48.996;20.804;2023-05-17T06:04:46;5.38;;;4.10;;
75289;SDS011;63883;48.996;20.804;2023-05-17T06:07:12;4.90;;;3.92;;
75289;SDS011;63883;48.996;20.804;2023-05-17T06:09:39;4.35;;;3.53;;
75289;SDS011;63883;48.996;20.804;2023-05-17T06:12:05;4.28;;;3.80;;
75289;SDS011;63883;48.996;20.804;2023-05-17T06:14:31;5.28;;;4.20;;
75289;SDS011;63883;48.996;20.804;2023-05-17T06:16:57;5.95;;;4.20;;
75289;SDS011;63883;48.996;20.804;2023-05-17T06:19:23;5.85;;;4.30;;
75289;SDS011;63883;48.996;20.804;2023-05-17T06:21:48;5.00;;;4.13;;
75289;SDS011;63883;48.996;20.804;2023-05-17T06:24:14;4.35;;;3.95;;
75289;SDS011;63883;48.996;20.804;2023-05-17T06:26:41;5.18;;;4.05;;
75289;SDS011;63883;48.996;20.804;2023-05-17T06:29:08;5.18;;;4.20;;
75289;SDS011;63883;48.996;20.804;2023-05-17T06:31:34;4.47;;;3.65;;
75289;SDS011;63883;48.996;20.804;2023-05-17T06:34:00;5.85;;;3.63;;
75289;SDS011;63883;48.996;20.804;2023-05-17T06:36:26;4.70;;;3.88;;
75289;SDS011;63883;48.996;20.804;2023-05-17T06:38:52;5.07;;;3.92;;
75289;SDS011;63883;48.996;20.804;2023-05-17T06:41:17;4.47;;;3.58;;
75289;SDS011;63883;48.996;20.804;2023-05-17T06:43:44;4.10;;;3.42;;
75289;SDS011;63883;48.996;20.804;2023-05-17T06:46:09;4.45;;;3.53;;
75289;SDS011;63883;48.996;20.804;2023-05-17T06:48:35;4.07;;;3.63;;
75289;SDS011;63883;48.996;20.804;2023-05-17T06:51:01;5.65;;;3.97;;
75289;SDS011;63883;48.996;20.804;2023-05-17T06:53:27;3.83;;;3.42;;
75289;SDS011;63883;48.996;20.804;2023-05-17T06:55:52;3.92;;;3.50;;
75289;SDS011;63883;48.996;20.804;2023-05-17T06:58:18;5.88;;;4.00;;
75289;SDS011;63883;48.996;20.804;2023-05-17T07:00:44;4.40;;;3.70;;
75289;SDS011;63883;48.996;20.804;2023-05-17T07:03:10;4.45;;;3.83;;
75289;SDS011;63883;48.996;20.804;2023-05-17T07:05:35;4.05;;;3.58;;
75289;SDS011;63883;48.996;20.804;2023-05-17T07:08:01;4.53;;;3.72;;
75289;SDS011;63883;48.996;20.804;2023-05-17T07:10:27;4.95;;;3.55;;
75289;SDS011;63883;48.996;20.804;2023-05-17T07:12:53;4.68;;;3.63;;
75289;SDS011;63883;48.996;20.804;2023-05-17T07:15:18;5.88;;;3.80;;
75289;SDS011;63883;48.996;20.804;2023-05-17T07:17:44;4.68;;;3.80;;
75289;SDS011;63883;48.996;20.804;2023-05-17T07:20:10;4.97;;;4.10;;
75289;SDS011;63883;48.996;20.804;2023-05-17T07:22:37;4.90;;;4.03;;
75289;SDS011;63883;48.996;20.804;2023-05-17T07:25:03;4.97;;;4.30;;
75289;SDS011;63883;48.996;20.804;2023-05-17T07:27:29;5.88;;;4.75;;
75289;SDS011;63883;48.996;20.804;2023-05-17T07:29:55;6.18;;;5.05;;
75289;SDS011;63883;48.996;20.804;2023-05-17T07:32:21;7.50;;;5.10;;
75289;SDS011;63883;48.996;20.804;2023-05-17T07:34:46;6.00;;;4.90;;
75289;SDS011;63883;48.996;20.804;2023-05-17T07:37:12;6.20;;;4.60;;
75289;SDS011;63883;48.996;20.804;2023-05-17T07:39:38;6.13;;;4.60;;
75289;SDS011;63883;48.996;20.804;2023-05-17T07:42:04;5.80;;;4.47;;
75289;SDS011;63883;48.996;20.804;2023-05-17T07:44:30;6.45;;;4.63;;
75289;SDS011;63883;48.996;20.804;2023-05-17T07:46:56;4.38;;;3.45;;
75289;SDS011;63883;48.996;20.804;2023-05-17T07:49:22;4.65;;;3.80;;
75289;SDS011;63883;48.996;20.804;2023-05-17T07:51:48;5.68;;;4.40;;
75289;SDS011;63883;48.996;20.804;2023-05-17T07:54:23;6.20;;;4.35;;
75289;SDS011;63883;48.996;20.804;2023-05-17T07:56:52;7.68;;;4.10;;
75289;SDS011;63883;48.996;20.804;2023-05-17T07:59:20;5.93;;;4.22;;
75289;SDS011;63883;48.996;20.804;2023-05-17T08:01:46;5.10;;;4.35;;
75289;SDS011;63883;48.996;20.804;2023-05-17T08:04:12;5.72;;;4.53;;
75289;SDS011;63883;48.996;20.804;2023-05-17T08:06:39;5.80;;;4.50;;
75289;SDS011;63883;48.996;20.804;2023-05-17T08:09:05;5.85;;;4.28;;
75289;SDS011;63883;48.996;20.804;2023-05-17T08:11:31;4.95;;;3.88;;
75289;SDS011;63883;48.996;20.804;2023-05-17T08:13:58;5.90;;;3.90;;
75289;SDS011;63883;48.996;20.804;2023-05-17T08:16:25;5.78;;;4.30;;
75289;SDS011;63883;48.996;20.804;2023-05-17T08:18:50;5.35;;;4.47;;
75289;SDS011;63883;48.996;20.804;2023-05-17T08:21:16;6.47;;;5.18;;
75289;SDS011;63883;48.996;20.804;2023-05-17T08:23:42;6.35;;;5.05;;
75289;SDS011;63883;48.996;20.804;2023-05-17T08:26:08;7.15;;;5.45;;
75289;SDS011;63883;48.996;20.804;2023-05-17T08:28:34;6.28;;;4.90;;
75289;SDS011;63883;48.996;20.804;2023-05-17T08:31:00;5.72;;;4.63;;
75289;SDS011;63883;48.996;20.804;2023-05-17T08:33:26;4.78;;;3.55;;
75289;SDS011;63883;48.996;20.804;2023-05-17T08:35:52;4.32;;;2.80;;
75289;SDS011;63883;48.996;20.804;2023-05-17T08:38:20;4.28;;;3.30;;
75289;SDS011;63883;48.996;20.804;2023-05-17T08:40:53;2.92;;;2.40;;
75289;SDS011;63883;48.996;20.804;2023-05-17T08:43:19;2.65;;;1.98;;
75289;SDS011;63883;48.996;20.804;2023-05-17T08:45:46;1.25;;;1.15;;
75289;SDS011;63883;48.996;20.804;2023-05-17T08:48:14;0.73;;;0.73;;
75289;SDS011;63883;48.996;20.804;2023-05-17T08:50:42;1.30;;;1.20;;
75289;SDS011;63883;48.996;20.804;2023-05-17T08:53:10;1.67;;;1.30;;
75289;SDS011;63883;48.996;20.804;2023-05-17T08:55:39;1.20;;;1.10;;
75289;SDS011;63883;48.996;20.804;2023-05-17T08:58:07;1.33;;;0.90;;
75289;SDS011;63883;48.996;20.804;2023-05-17T09:00:35;0.80;;;0.80;;
75289;SDS011;63883;48.996;20.804;2023-05-17T09:03:00;1.80;;;0.75;;
75289;SDS011;63883;48.996;20.804;2023-05-17T09:05:27;1.75;;;1.10;;
75289;SDS011;63883;48.996;20.804;2023-05-17T09:07:52;1.00;;;1.00;;
75289;SDS011;63883;48.996;20.804;2023-05-17T09:10:18;2.42;;;1.50;;
75289;SDS011;63883;48.996;20.804;2023-05-17T09:12:44;1.33;;;1.08;;
75289;SDS011;63883;48.996;20.804;2023-05-17T09:15:17;1.70;;;1.17;;
75289;SDS011;63883;48.996;20.804;2023-05-17T09:17:53;1.10;;;1.00;;
75289;SDS011;63883;48.996;20.804;2023-05-17T09:20:23;1.10;;;1.00;;
75289;SDS011;63883;48.996;20.804;2023-05-17T09:22:49;1.20;;;1.10;;
75289;SDS011;63883;48.996;20.804;2023-05-17T09:25:20;0.90;;;0.90;;
75289;SDS011;63883;48.996;20.804;2023-05-17T09:27:50;1.23;;;1.10;;
75289;SDS011;63883;48.996;20.804;2023-05-17T09:30:17;0.70;;;0.70;;
75289;SDS011;63883;48.996;20.804;2023-05-17T09:32:43;0.65;;;0.65;;
75289;SDS011;63883;48.996;20.804;2023-05-17T09:35:12;0.80;;;0.80;;
75289;SDS011;63883;48.996;20.804;2023-05-17T09:37:38;0.63;;;0.63;;
75289;SDS011;63883;48.996;20.804;2023-05-17T09:40:05;1.00;;;0.93;;
75289;SDS011;63883;48.996;20.804;2023-05-17T09:42:32;4.60;;;2.85;;
75289;SDS011;63883;48.996;20.804;2023-05-17T09:45:03;1.98;;;1.77;;
75289;SDS011;63883;48.996;20.804;2023-05-17T09:47:29;2.88;;;2.33;;
75289;SDS011;63883;48.996;20.804;2023-05-17T09:49:56;2.20;;;1.77;;
75289;SDS011;63883;48.996;20.804;2023-05-17T09:52:25;0.82;;;0.80;;
75289;SDS011;63883;48.996;20.804;2023-05-17T09:54:56;1.00;;;1.00;;
75289;SDS011;63883;48.996;20.804;2023-05-17T09:57:26;0.95;;;0.90;;
75289;SDS011;63883;48.996;20.804;2023-05-17T09:59:56;1.45;;;0.90;;
75289;SDS011;63883;48.996;20.804;2023-05-17T10:02:29;1.63;;;1.00;;
75289;SDS011;63883;48.996;20.804;2023-05-17T10:04:57;0.50;;;0.50;;
75289;SDS011;63883;48.996;20.804;2023-05-17T10:07:26;0.80;;;0.80;;
75289;SDS011;63883;48.996;20.804;2023-05-17T10:09:52;0.90;;;0.75;;
75289;SDS011;63883;48.996;20.804;2023-05-17T10:12:23;1.13;;;0.75;;
75289;SDS011;63883;48.996;20.804;2023-05-17T10:14:52;1.15;;;0.80;;
75289;SDS011;63883;48.996;20.804;2023-05-17T10:17:20;0.90;;;0.75;;
75289;SDS011;63883;48.996;20.804;2023-05-17T10:19:46;0.60;;;0.60;;
75289;SDS011;63883;48.996;20.804;2023-05-17T10:22:13;0.70;;;0.70;;
75289;SDS011;63883;48.996;20.804;2023-05-17T10:24:42;1.17;;;1.10;;
75289;SDS011;63883;48.996;20.804;2023-05-17T10:27:08;1.10;;;1.10;;
75289;SDS011;63883;48.996;20.804;2023-05-17T10:29:35;1.20;;;1.10;;
75289;SDS011;63883;48.996;20.804;2023-05-17T10:32:03;1.67;;;0.90;;
75289;SDS011;63883;48.996;20.804;2023-05-17T10:34:34;1.52;;;0.93;;
75289;SDS011;63883;48.996;20.804;2023-05-17T10:37:00;1.63;;;1.08;;
75289;SDS011;63883;48.996;20.804;2023-05-17T10:39:27;1.30;;;1.20;;
75289;SDS011;63883;48.996;20.804;2023-05-17T10:41:53;1.20;;;1.10;;
75289;SDS011;63883;48.996;20.804;2023-05-17T10:44:21;2.05;;;1.02;;
75289;SDS011;63883;48.996;20.804;2023-05-17T10:46:51;1.55;;;1.00;;
75289;SDS011;63883;48.996;20.804;2023-05-17T10:49:19;2.35;;;1.17;;
75289;SDS011;63883;48.996;20.804;2023-05-17T10:51:45;0.63;;;0.63;;
75289;SDS011;63883;48.996;20.804;2023-05-17T10:54:11;0.80;;;0.73;;
75289;SDS011;63883;48.996;20.804;2023-05-17T10:56:52;0.85;;;0.85;;
75289;SDS011;63883;48.996;20.804;2023-05-17T10:59:19;0.95;;;0.70;;
75289;SDS011;63883;48.996;20.804;2023-05-17T11:01:58;0.60;;;0.60;;
75289;SDS011;63883;48.996;20.804;2023-05-17T11:12:28;0.63;;;0.60;;
75289;SDS011;63883;48.996;20.804;2023-05-17T11:15:14;0.55;;;0.55;;
75289;SDS011;63883;48.996;20.804;2023-05-17T11:22:41;0.77;;;0.77;;
75289;SDS011;63883;48.996;20.804;2023-05-17T11:25:09;0.70;;;0.70;;
75289;SDS011;63883;48.996;20.804;2023-05-17T11:27:38;1.45;;;0.70;;
75289;SDS011;63883;48.996;20.804;2023-05-17T11:30:08;0.93;;;0.70;;
75289;SDS011;63883;48.996;20.804;2023-05-17T11:32:44;1.30;;;0.70;;
75289;SDS011;63883;48.996;20.804;2023-05-17T11:35:11;0.82;;;0.82;;
75289;SDS011;63883;48.996;20.804;2023-05-17T11:37:38;0.70;;;0.70;;
75289;SDS011;63883;48.996;20.804;2023-05-17T11:40:08;0.75;;;0.60;;
75289;SDS011;63883;48.996;20.804;2023-05-17T11:42:36;1.45;;;0.60;;
75289;SDS011;63883;48.996;20.804;2023-05-17T11:45:04;1.20;;;0.70;;
75289;SDS011;63883;48.996;20.804;2023-05-17T11:47:30;0.70;;;0.70;;
75289;SDS011;63883;48.996;20.804;2023-05-17T11:50:00;0.77;;;0.77;;
75289;SDS011;63883;48.996;20.804;2023-05-17T11:52:27;0.70;;;0.70;;
75289;SDS011;63883;48.996;20.804;2023-05-17T11:54:54;0.70;;;0.70;;
75289;SDS011;63883;48.996;20.804;2023-05-17T11:57:22;1.85;;;0.50;;
75289;SDS011;63883;48.996;20.804;2023-05-17T11:59:59;0.75;;;0.75;;
75289;SDS011;63883;48.996;20.804;2023-05-17T12:02:27;1.27;;;0.90;;
75289;SDS011;63883;48.996;20.804;2023-05-17T12:04:55;0.80;;;0.80;;
75289;SDS011;63883;48.996;20.804;2023-05-17T12:07:20;1.70;;;1.55;;
75289;SDS011;63883;48.996;20.804;2023-05-17T12:09:46;5.13;;;2.50;;
75289;SDS011;63883;48.996;20.804;2023-05-17T12:12:12;0.82;;;0.82;;
75289;SDS011;63883;48.996;20.804;2023-05-17T12:14:41;0.80;;;0.80;;
75289;SDS011;63883;48.996;20.804;2023-05-17T12:17:07;0.98;;;0.70;;
75289;SDS011;63883;48.996;20.804;2023-05-17T12:19:34;1.02;;;0.70;;
75289;SDS011;63883;48.996;20.804;2023-05-17T12:22:10;0.40;;;0.40;;
75289;SDS011;63883;48.996;20.804;2023-05-17T12:24:40;0.90;;;0.90;;
75289;SDS011;63883;48.996;20.804;2023-05-17T12:27:06;0.30;;;0.30;;
75289;SDS011;63883;48.996;20.804;2023-05-17T12:29:33;1.55;;;1.20;;
75289;SDS011;63883;48.996;20.804;2023-05-17T12:31:58;1.00;;;1.00;;
75289;SDS011;63883;48.996;20.804;2023-05-17T12:34:26;0.65;;;0.65;;
75289;SDS011;63883;48.996;20.804;2023-05-17T12:36:54;0.43;;;0.43;;
75289;SDS011;63883;48.996;20.804;2023-05-17T12:39:20;2.53;;;2.33;;
75289;SDS011;63883;48.996;20.804;2023-05-17T12:41:49;2.45;;;1.33;;
75289;SDS011;63883;48.996;20.804;2023-05-17T12:44:16;0.90;;;0.90;;
75289;SDS011;63883;48.996;20.804;2023-05-17T12:46:49;3.00;;;1.95;;
75289;SDS011;63883;48.996;20.804;2023-05-17T12:49:18;3.35;;;1.90;;
75289;SDS011;63883;48.996;20.804;2023-05-17T12:51:47;0.73;;;0.50;;
75289;SDS011;63883;48.996;20.804;2023-05-17T12:54:23;0.70;;;0.70;;
75289;SDS011;63883;48.996;20.804;2023-05-17T12:56:50;0.80;;;0.80;;
75289;SDS011;63883;48.996;20.804;2023-05-17T12:59:16;1.15;;;0.50;;
75289;SDS011;63883;48.996;20.804;2023-05-17T13:04:10;0.70;;;0.70;;
75289;SDS011;63883;48.996;20.804;2023-05-17T13:09:19;0.90;;;0.90;;
75289;SDS011;63883;48.996;20.804;2023-05-17T13:11:49;1.05;;;0.95;;
75289;SDS011;63883;48.996;20.804;2023-05-17T13:14:31;2.45;;;1.60;;
75289;SDS011;63883;48.996;20.804;2023-05-17T13:17:02;1.17;;;1.08;;
75289;SDS011;63883;48.996;20.804;2023-05-17T13:19:30;0.63;;;0.63;;
75289;SDS011;63883;48.996;20.804;2023-05-17T13:21:55;0.63;;;0.63;;
75289;SDS011;63883;48.996;20.804;2023-05-17T13:24:21;0.60;;;0.60;;
75289;SDS011;63883;48.996;20.804;2023-05-17T13:26:47;1.20;;;0.70;;
75289;SDS011;63883;48.996;20.804;2023-05-17T13:29:13;1.67;;;0.80;;
75289;SDS011;63883;48.996;20.804;2023-05-17T13:31:38;0.60;;;0.52;;
75289;SDS011;63883;48.996;20.804;2023-05-17T13:34:06;0.68;;;0.60;;
75289;SDS011;63883;48.996;20.804;2023-05-17T13:36:31;1.20;;;0.57;;
75289;SDS011;63883;48.996;20.804;2023-05-17T13:38:57;0.40;;;0.40;;
75289;SDS011;63883;48.996;20.804;2023-05-17T13:41:26;0.50;;;0.50;;
75289;SDS011;63883;48.996;20.804;2023-05-17T13:43:52;0.50;;;0.50;;
75289;SDS011;63883;48.996;20.804;2023-05-17T13:46:18;1.00;;;0.77;;
75289;SDS011;63883;48.996;20.804;2023-05-17T13:48:44;1.40;;;1.30;;
75289;SDS011;63883;48.996;20.804;2023-05-17T13:51:09;4.10;;;3.15;;
75289;SDS011;63883;48.996;20.804;2023-05-17T13:53:35;2.10;;;1.88;;
75289;SDS011;63883;48.996;20.804;2023-05-17T13:56:02;7.82;;;4.53;;
75289;SDS011;63883;48.996;20.804;2023-05-17T13:58:28;21.13;;;10.57;;
75289;SDS011;63883;48.996;20.804;2023-05-17T14:00:54;4.68;;;1.83;;
75289;SDS011;63883;48.996;20.804;2023-05-17T14:03:20;1.58;;;1.00;;
75289;SDS011;63883;48.996;20.804;2023-05-17T14:05:46;0.68;;;0.68;;
75289;SDS011;63883;48.996;20.804;2023-05-17T14:08:18;0.50;;;0.50;;
75289;SDS011;63883;48.996;20.804;2023-05-17T14:10:44;1.02;;;1.02;;
75289;SDS011;63883;48.996;20.804;2023-05-17T14:13:10;1.65;;;1.10;;
75289;SDS011;63883;48.996;20.804;2023-05-17T14:15:37;0.60;;;0.60;;
75289;SDS011;63883;48.996;20.804;2023-05-17T14:18:05;0.82;;;0.70;;
75289;SDS011;63883;48.996;20.804;2023-05-17T14:20:31;0.77;;;0.43;;
75289;SDS011;63883;48.996;20.804;2023-05-17T14:22:58;1.13;;;0.70;;
75289;SDS011;63883;48.996;20.804;2023-05-17T14:25:24;1.95;;;0.63;;
75289;SDS011;63883;48.996;20.804;2023-05-17T14:27:50;0.93;;;0.50;;
75289;SDS011;63883;48.996;20.804;2023-05-17T14:30:16;0.47;;;0.40;;
75289;SDS011;63883;48.996;20.804;2023-05-17T14:32:42;0.30;;;0.30;;
75289;SDS011;63883;48.996;20.804;2023-05-17T14:35:08;0.50;;;0.50;;
75289;SDS011;63883;48.996;20.804;2023-05-17T14:37:34;1.77;;;0.98;;
75289;SDS011;63883;48.996;20.804;2023-05-17T14:40:00;0.73;;;0.60;;
75289;SDS011;63883;48.996;20.804;2023-05-17T14:42:26;10.18;;;2.10;;
75289;SDS011;63883;48.996;20.804;2023-05-17T14:44:51;1.25;;;1.00;;
75289;SDS011;63883;48.996;20.804;2023-05-17T14:47:17;62.70;;;22.55;;
75289;SDS011;63883;48.996;20.804;2023-05-17T14:49:45;3.42;;;1.75;;
75289;SDS011;63883;48.996;20.804;2023-05-17T14:52:12;2.28;;;1.30;;
75289;SDS011;63883;48.996;20.804;2023-05-17T14:54:38;0.30;;;0.30;;
75289;SDS011;63883;48.996;20.804;2023-05-17T14:57:05;1.92;;;0.90;;
75289;SDS011;63883;48.996;20.804;2023-05-17T14:59:31;0.30;;;0.30;;
75289;SDS011;63883;48.996;20.804;2023-05-17T15:01:57;0.68;;;0.60;;
75289;SDS011;63883;48.996;20.804;2023-05-17T15:04:22;0.52;;;0.50;;
75289;SDS011;63883;48.996;20.804;2023-05-17T15:06:48;0.95;;;0.80;;